createdAt,value
2017-05-13T00:00:34.334Z,0
2017-05-13T00:10:44.215Z,0
2017-05-13T00:20:54.010Z,0
2017-05-13T00:31:03.957Z,0
2017-05-13T00:41:13.600Z,0
2017-05-13T00:51:23.416Z,0
2017-05-13T01:01:33.261Z,0
2017-05-13T01:11:43.101Z,0
2017-05-13T01:21:52.851Z,0
2017-05-13T01:32:02.633Z,0
2017-05-13T01:42:12.419Z,0
2017-05-13T01:52:22.186Z,0
2017-05-13T02:02:32.046Z,0
2017-05-13T02:12:41.915Z,0
2017-05-13T02:22:51.774Z,0
2017-05-13T02:33:01.618Z,0
2017-05-13T02:43:11.539Z,0
2017-05-13T02:53:21.446Z,0
2017-05-13T03:03:31.426Z,4
2017-05-13T03:13:41.349Z,16
2017-05-13T03:23:51.284Z,52
2017-05-13T03:34:01.239Z,148
2017-05-13T03:44:11.090Z,340
2017-05-13T03:54:20.963Z,604
2017-05-13T04:04:30.842Z,1080
2017-05-13T04:14:40.679Z,2400
2017-05-13T04:24:50.418Z,3688
2017-05-13T04:35:00.068Z,4016
2017-05-13T04:45:09.710Z,5360
2017-05-13T04:55:19.305Z,6016
2017-05-13T05:05:28.841Z,6024
2017-05-13T05:15:38.362Z,5220
2017-05-13T05:25:47.870Z,5756
2017-05-13T05:35:57.535Z,7020
2017-05-13T05:46:07.183Z,7564
2017-05-13T05:56:16.700Z,8152
2017-05-13T06:06:26.175Z,12084
2017-05-13T06:16:35.487Z,16148
2017-05-13T06:26:44.670Z,11716
2017-05-13T06:36:53.842Z,12516
2017-05-13T06:47:03.034Z,14008
2017-05-13T06:57:12.170Z,12884
2017-05-13T07:07:21.255Z,16124
2017-05-13T07:17:30.303Z,18976
2017-05-13T07:27:39.250Z,15196
2017-05-13T07:37:48.235Z,12340
2017-05-13T07:47:57.316Z,15260
2017-05-13T07:58:06.411Z,15496
2017-05-13T08:08:15.451Z,21120
2017-05-13T08:18:24.362Z,19392
2017-05-13T08:28:33.184Z,21728
2017-05-13T08:38:41.893Z,32160
2017-05-13T08:48:50.476Z,28480
2017-05-13T08:58:58.960Z,28768
2017-05-13T09:09:07.408Z,34176
2017-05-13T09:19:15.701Z,51040
2017-05-13T09:29:23.775Z,82880
2017-05-13T09:39:31.673Z,67840
2017-05-13T09:49:39.482Z,38784
2017-05-13T09:59:47.425Z,51904
2017-05-13T10:09:55.331Z,22848
2017-05-13T10:20:03.302Z,21408
2017-05-13T10:30:11.493Z,51072
2017-05-13T10:40:19.572Z,22016
2017-05-13T10:50:27.601Z,22528
2017-05-13T11:00:35.693Z,138016
2017-05-13T11:10:43.583Z,135808
2017-05-13T11:20:51.324Z,126560
2017-05-13T11:30:59.091Z,81664
2017-05-13T11:41:06.958Z,50368
2017-05-13T11:51:14.862Z,43936
2017-05-13T12:01:22.852Z,159872
2017-05-13T12:11:30.753Z,32640
2017-05-13T12:21:38.667Z,35808
2017-05-13T12:31:46.639Z,121600
2017-05-13T12:41:54.320Z,122752
2017-05-13T12:52:01.784Z,55936
2017-05-13T13:02:09.483Z,126208
2017-05-13T13:12:16.841Z,116960
2017-05-13T13:22:24.260Z,105728
2017-05-13T13:32:31.646Z,121952
2017-05-13T13:42:38.877Z,114720
2017-05-13T13:52:46.188Z,111616
2017-05-13T14:02:53.521Z,25568
2017-05-13T14:13:00.988Z,34816
2017-05-13T14:23:08.515Z,102176
2017-05-13T14:33:15.783Z,28352
2017-05-13T14:43:23.057Z,88896
2017-05-13T14:53:30.199Z,74816
2017-05-13T15:03:37.505Z,66464
2017-05-13T15:13:44.749Z,69248
2017-05-13T15:23:52.209Z,23552
2017-05-13T15:33:59.630Z,65952
2017-05-13T15:44:06.778Z,58400
2017-05-13T15:54:13.745Z,51456
2017-05-13T16:04:20.765Z,41248
2017-05-13T16:14:27.913Z,48544
2017-05-13T16:24:35.113Z,20672
2017-05-13T16:34:42.418Z,21856
2017-05-13T16:44:49.746Z,15900
2017-05-13T16:54:57.122Z,18112
2017-05-13T17:05:04.783Z,8368
2017-05-13T17:15:12.788Z,8628
2017-05-13T17:25:20.742Z,7268
2017-05-13T17:35:28.759Z,6812
2017-05-13T17:45:36.892Z,6520
2017-05-13T17:55:45.111Z,5232
2017-05-13T18:05:53.488Z,4088
2017-05-13T18:16:02.063Z,3588
2017-05-13T18:26:10.712Z,3120
2017-05-13T18:36:19.513Z,2112
2017-05-13T18:46:28.369Z,1336
2017-05-13T18:56:37.311Z,1008
2017-05-13T19:06:46.311Z,624
2017-05-13T19:16:55.340Z,240
2017-05-13T19:27:04.424Z,88
2017-05-13T19:37:13.586Z,28
2017-05-13T19:47:22.825Z,8
2017-05-13T19:57:32.140Z,0
2017-05-13T20:07:41.517Z,0
2017-05-13T20:17:50.993Z,0
2017-05-13T20:28:00.453Z,0
2017-05-13T20:38:09.984Z,0
2017-05-13T20:48:19.481Z,0
2017-05-13T20:58:29.024Z,0
2017-05-13T21:08:38.616Z,0
2017-05-13T21:12:32.180Z,0
2017-05-13T21:12:50.644Z,0
2017-05-13T21:13:46.260Z,0
2017-05-13T21:15:48.916Z,0
2017-05-13T21:16:30.545Z,0
2017-05-13T21:26:40.107Z,0
2017-05-13T21:36:49.822Z,0
2017-05-13T21:46:59.517Z,0
2017-05-13T21:57:09.204Z,0
2017-05-13T22:07:18.916Z,0
2017-05-13T22:17:28.605Z,0
2017-05-13T22:27:38.310Z,0
2017-05-13T22:37:47.989Z,0
2017-05-13T22:47:57.674Z,0
2017-05-13T22:58:07.351Z,0
2017-05-13T23:08:17.025Z,0
2017-05-13T23:18:26.664Z,0
2017-05-13T23:28:36.283Z,0
2017-05-13T23:38:45.887Z,0
2017-05-13T23:48:55.599Z,0
2017-05-13T23:59:05.365Z,0
